createdAt,value
2018-11-12T00:01:37.074Z,90.60
2018-11-12T00:04:05.684Z,90.60
2018-11-12T00:06:34.107Z,90.50
2018-11-12T00:09:02.551Z,90.50
2018-11-12T00:11:30.996Z,91.00
2018-11-12T00:13:59.408Z,91.00
2018-11-12T00:16:27.812Z,90.90
2018-11-12T00:18:56.211Z,90.50
2018-11-12T00:21:24.643Z,90.40
2018-11-12T00:23:53.068Z,90.50
2018-11-12T00:26:21.478Z,90.40
2018-11-12T00:28:50.058Z,90.50
2018-11-12T00:31:18.492Z,90.60
2018-11-12T00:33:46.879Z,90.60
2018-11-12T00:36:15.294Z,90.50
2018-11-12T00:38:43.692Z,90.50
2018-11-12T00:41:12.107Z,90.50
2018-11-12T00:46:08.656Z,90.20
2018-11-12T00:51:05.516Z,90.20
2018-11-12T00:53:33.944Z,90.30
2018-11-12T00:56:02.323Z,90.20
2018-11-12T00:58:30.736Z,90.20
2018-11-12T01:00:59.133Z,90.20
2018-11-12T01:03:27.560Z,90.10
2018-11-12T01:05:55.943Z,90.20
2018-11-12T01:08:24.376Z,90.40
2018-11-12T01:10:52.778Z,90.50
2018-11-12T01:13:21.171Z,90.20
2018-11-12T01:15:49.588Z,90.40
2018-11-12T01:18:17.988Z,90.10
2018-11-12T01:20:46.375Z,90.30
2018-11-12T01:23:14.783Z,90.70
2018-11-12T01:25:43.201Z,90.70
2018-11-12T01:28:11.608Z,90.80
2018-11-12T01:30:39.993Z,90.90
2018-11-12T01:33:08.412Z,90.90
2018-11-12T01:35:36.791Z,90.90
2018-11-12T01:38:05.304Z,90.90
2018-11-12T01:40:33.707Z,90.80
2018-11-12T01:43:02.096Z,90.70
2018-11-12T01:45:30.507Z,90.60
2018-11-12T01:47:58.891Z,90.60
2018-11-12T01:50:27.308Z,90.70
2018-11-12T01:52:55.716Z,90.70
2018-11-12T01:57:52.192Z,90.60
2018-11-12T02:02:51.032Z,90.50
2018-11-12T02:05:19.643Z,90.40
2018-11-12T02:07:48.071Z,90.60
2018-11-12T02:10:17.629Z,90.80
2018-11-12T02:12:46.256Z,90.80
2018-11-12T02:15:16.938Z,91.00
2018-11-12T02:17:46.296Z,90.70
2018-11-12T02:20:15.824Z,90.80
2018-11-12T02:22:45.095Z,90.90
2018-11-12T02:25:14.056Z,90.60
2018-11-12T02:27:42.456Z,90.50
2018-11-12T02:35:10.799Z,90.50
2018-11-12T02:40:09.807Z,90.60
2018-11-12T02:42:38.196Z,90.70
2018-11-12T02:45:07.440Z,90.70
2018-11-12T02:47:35.881Z,90.30
2018-11-12T02:52:32.391Z,90.40
2018-11-12T02:55:00.836Z,90.20
2018-11-12T02:57:29.251Z,90.10
2018-11-12T02:59:57.693Z,90.10
2018-11-12T03:02:26.110Z,90.20
2018-11-12T03:04:54.516Z,90.00
2018-11-12T03:07:22.930Z,89.90
2018-11-12T03:09:51.316Z,89.90
2018-11-12T03:12:19.729Z,90.00
2018-11-12T03:14:48.173Z,89.80
2018-11-12T03:17:16.544Z,90.00
2018-11-12T03:19:44.939Z,90.10
2018-11-12T03:22:13.340Z,90.00
2018-11-12T03:24:41.732Z,90.10
2018-11-12T03:27:10.162Z,90.30
2018-11-12T03:29:38.540Z,90.40
2018-11-12T03:32:06.968Z,90.40
2018-11-12T03:34:35.348Z,90.10
2018-11-12T03:37:03.776Z,90.00
2018-11-12T03:39:32.191Z,90.10
2018-11-12T03:42:00.616Z,89.90
2018-11-12T03:44:29.011Z,90.00
2018-11-12T03:46:57.433Z,89.90
2018-11-12T03:49:25.820Z,89.80
2018-11-12T03:51:54.212Z,89.90
2018-11-12T03:54:22.607Z,90.00
2018-11-12T03:56:51.005Z,89.90
2018-11-12T03:59:19.468Z,90.00
2018-11-12T04:01:47.835Z,90.10
2018-11-12T04:06:46.244Z,90.50
2018-11-12T04:09:14.652Z,90.80
2018-11-12T04:11:44.396Z,90.70
2018-11-12T04:14:13.369Z,90.90
2018-11-12T04:16:43.333Z,91.70
2018-11-12T04:19:11.716Z,91.50
2018-11-12T04:21:40.119Z,91.60
2018-11-12T04:24:08.615Z,91.70
2018-11-12T04:26:37.043Z,91.60
2018-11-12T04:29:05.483Z,91.30
2018-11-12T04:31:33.868Z,91.30
2018-11-12T04:36:30.368Z,91.40
2018-11-12T04:41:26.887Z,91.20
2018-11-12T04:43:55.323Z,91.00
2018-11-12T04:46:23.719Z,90.80
2018-11-12T04:48:52.100Z,90.90
2018-11-12T04:51:20.509Z,90.80
2018-11-12T04:53:49.000Z,91.00
2018-11-12T04:56:17.300Z,90.70
2018-11-12T04:58:45.689Z,90.70
2018-11-12T05:01:14.076Z,90.60
2018-11-12T05:03:42.473Z,90.70
2018-11-12T05:08:38.983Z,90.60
2018-11-12T05:11:07.424Z,90.60
2018-11-12T05:13:35.844Z,90.50
2018-11-12T05:16:04.461Z,90.50
2018-11-12T05:18:32.870Z,90.40
2018-11-12T05:21:01.244Z,90.40
2018-11-12T05:23:29.688Z,90.10
2018-11-12T05:25:58.069Z,90.10
2018-11-12T05:28:26.463Z,90.40
2018-11-12T05:30:54.840Z,90.40
2018-11-12T05:33:23.243Z,90.60
2018-11-12T05:35:51.627Z,90.40
2018-11-12T05:38:20.079Z,90.20
2018-11-12T05:40:48.467Z,90.40
2018-11-12T05:45:44.971Z,90.60
2018-11-12T05:48:13.388Z,89.90
2018-11-12T05:50:41.767Z,90.40
2018-11-12T05:53:10.181Z,90.10
2018-11-12T05:55:38.559Z,90.20
2018-11-12T05:58:06.963Z,90.40
2018-11-12T06:00:36.296Z,90.20
2018-11-12T06:03:04.821Z,90.30
2018-11-12T06:05:33.973Z,90.50
2018-11-12T06:08:02.672Z,90.70
2018-11-12T06:10:32.023Z,90.70
2018-11-12T06:13:00.435Z,90.70
2018-11-12T06:15:28.840Z,90.40
2018-11-12T06:17:57.260Z,90.80
2018-11-12T06:20:27.022Z,91.00
2018-11-12T06:22:55.456Z,91.00
2018-11-12T06:25:25.212Z,90.90
2018-11-12T06:27:54.060Z,90.80
2018-11-12T06:30:23.770Z,90.90
2018-11-12T06:32:52.180Z,90.90
2018-11-12T06:35:21.134Z,91.00
2018-11-12T06:37:50.321Z,90.80
2018-11-12T06:40:20.972Z,90.50
2018-11-12T06:42:49.547Z,90.40
2018-11-12T06:45:19.651Z,90.40
2018-11-12T06:47:48.936Z,90.30
2018-11-12T06:50:21.864Z,90.10
2018-11-12T06:55:18.988Z,89.90
2018-11-12T06:57:47.789Z,89.80
2018-11-12T07:00:18.620Z,89.90
2018-11-12T07:02:47.040Z,89.80
2018-11-12T07:05:15.775Z,90.10
2018-11-12T07:07:44.191Z,90.50
2018-11-12T07:10:15.029Z,90.80
2018-11-12T07:15:13.983Z,91.30
2018-11-12T07:17:42.429Z,91.50
2018-11-12T07:20:19.144Z,92.10
2018-11-12T07:22:47.808Z,92.40
2018-11-12T07:27:45.478Z,92.50
2018-11-12T07:30:17.808Z,92.30
2018-11-12T07:32:46.835Z,92.60
2018-11-12T07:35:15.899Z,92.50
2018-11-12T07:37:45.406Z,92.50
2018-11-12T07:40:14.544Z,92.70
2018-11-12T07:42:43.196Z,91.90
2018-11-12T07:45:16.299Z,91.50
2018-11-12T07:47:45.579Z,91.50
2018-11-12T07:50:15.333Z,90.90
2018-11-12T07:52:43.984Z,90.10
2018-11-12T08:00:14.231Z,90.10
2018-11-12T08:02:43.443Z,89.80
2018-11-12T08:05:12.657Z,89.70
2018-11-12T08:07:41.894Z,89.60
2018-11-12T08:10:13.179Z,88.90
2018-11-12T08:12:42.180Z,89.10
2018-11-12T08:15:12.652Z,88.70
2018-11-12T08:17:41.285Z,88.30
2018-11-12T08:20:11.892Z,88.30
2018-11-12T08:22:40.284Z,88.30
2018-11-12T08:25:09.868Z,88.60
2018-11-12T08:27:38.652Z,88.20
2018-11-12T08:30:10.796Z,88.20
2018-11-12T08:32:39.134Z,86.30
2018-11-12T08:35:07.598Z,86.70
2018-11-12T08:37:36.003Z,86.00
2018-11-12T08:40:05.219Z,84.10
2018-11-12T08:42:33.647Z,83.80
2018-11-12T08:45:02.647Z,83.50
2018-11-12T08:47:31.084Z,83.50
2018-11-12T08:49:59.776Z,82.80
2018-11-12T08:52:28.244Z,82.70
2018-11-12T08:54:56.826Z,82.10
2018-11-12T08:57:25.125Z,81.60
2018-11-12T09:02:21.712Z,80.80
2018-11-12T09:07:18.481Z,80.90
2018-11-12T09:09:46.711Z,80.50
2018-11-12T09:12:15.173Z,79.40
2018-11-12T09:14:43.576Z,78.90
2018-11-12T09:17:12.000Z,79.40
2018-11-12T09:19:40.376Z,78.40
2018-11-12T09:22:08.786Z,78.50
2018-11-12T09:24:37.188Z,78.10
2018-11-12T09:27:06.263Z,77.50
2018-11-12T09:29:34.704Z,77.80
2018-11-12T09:32:03.142Z,77.70
2018-11-12T09:34:31.539Z,77.50
2018-11-12T09:36:59.985Z,76.90
2018-11-12T09:39:28.393Z,76.80
2018-11-12T09:41:56.793Z,77.00
2018-11-12T09:44:25.249Z,78.10
2018-11-12T09:46:53.620Z,77.40
2018-11-12T09:49:22.020Z,77.40
2018-11-12T09:51:50.945Z,76.60
2018-11-12T09:54:19.440Z,75.20
2018-11-12T09:56:47.878Z,74.00
2018-11-12T09:59:16.337Z,74.70
2018-11-12T10:01:45.258Z,74.50
2018-11-12T10:06:42.822Z,73.40
2018-11-12T10:09:13.763Z,73.40
2018-11-12T10:11:42.368Z,72.90
2018-11-12T10:14:11.506Z,71.80
2018-11-12T10:19:06.150Z,71.50
2018-11-12T10:21:34.588Z,70.80
2018-11-12T10:24:02.987Z,70.40
2018-11-12T10:26:31.613Z,69.10
2018-11-12T10:29:00.014Z,68.50
2018-11-12T10:31:28.457Z,68.70
2018-11-12T10:33:56.906Z,69.10
2018-11-12T10:36:25.321Z,67.70
2018-11-12T10:38:53.732Z,67.10
2018-11-12T10:41:22.177Z,67.70
2018-11-12T10:43:50.584Z,67.60
2018-11-12T10:46:18.988Z,67.20
2018-11-12T10:48:47.383Z,67.00
2018-11-12T10:51:15.774Z,67.70
2018-11-12T10:53:50.043Z,68.50
2018-11-12T10:56:12.656Z,68.60
2018-11-12T11:01:14.395Z,70.80
2018-11-12T11:03:46.228Z,71.00
2018-11-12T11:06:14.687Z,71.60
2018-11-12T11:11:11.212Z,71.90
2018-11-12T11:13:39.669Z,72.50
2018-11-12T11:16:08.044Z,72.60
2018-11-12T11:18:36.473Z,73.50
2018-11-12T11:21:05.191Z,73.70
2018-11-12T11:23:33.607Z,73.90
2018-11-12T11:28:30.136Z,75.10
2018-11-12T11:30:58.572Z,75.10
2018-11-12T11:33:26.963Z,75.10
2018-11-12T11:35:55.340Z,74.80
2018-11-12T11:38:23.744Z,74.80
2018-11-12T11:40:52.180Z,75.40
2018-11-12T11:43:20.602Z,75.30
2018-11-12T11:45:48.985Z,75.50
2018-11-12T11:48:17.517Z,75.60
2018-11-12T11:50:45.950Z,75.10
2018-11-12T11:53:14.328Z,75.50
2018-11-12T11:55:42.724Z,74.00
2018-11-12T11:58:11.156Z,73.90
2018-11-12T12:00:39.539Z,73.90
2018-11-12T12:05:36.081Z,74.40
2018-11-12T12:08:04.601Z,73.50
2018-11-12T12:10:33.007Z,73.40
2018-11-12T12:13:01.454Z,74.40
2018-11-12T12:15:29.840Z,74.10
2018-11-12T12:17:58.227Z,74.40
2018-11-12T12:20:27.170Z,74.20
2018-11-12T12:22:55.908Z,74.40
2018-11-12T12:25:24.389Z,74.60
2018-11-12T12:27:52.791Z,74.00
2018-11-12T12:30:22.702Z,73.40
2018-11-12T12:32:52.012Z,73.00
2018-11-12T12:35:20.444Z,72.80
2018-11-12T12:37:49.032Z,73.20
2018-11-12T12:40:18.603Z,73.70
2018-11-12T12:42:47.032Z,73.50
2018-11-12T12:45:16.923Z,72.90
2018-11-12T12:47:45.622Z,73.10
2018-11-12T12:50:15.023Z,72.50
2018-11-12T12:52:43.448Z,72.50
2018-11-12T12:55:12.910Z,73.00
2018-11-12T12:57:42.133Z,72.70
2018-11-12T13:00:16.315Z,72.40
2018-11-12T13:02:44.986Z,72.80
2018-11-12T13:05:13.453Z,72.90
2018-11-12T13:07:42.000Z,72.70
2018-11-12T13:10:12.904Z,72.30
2018-11-12T13:12:41.567Z,72.30
2018-11-12T13:15:11.971Z,72.00
2018-11-12T13:17:40.399Z,72.10
2018-11-12T13:20:10.111Z,72.00
2018-11-12T13:22:38.519Z,72.30
2018-11-12T13:25:07.724Z,72.10
2018-11-12T13:27:36.118Z,72.30
2018-11-12T13:30:06.657Z,72.50
2018-11-12T13:32:35.088Z,71.60
2018-11-12T13:35:03.574Z,72.00
2018-11-12T13:37:32.007Z,72.60
2018-11-12T13:40:00.448Z,73.20
2018-11-12T13:42:28.923Z,73.40
2018-11-12T13:44:57.407Z,74.20
2018-11-12T13:47:25.800Z,74.20
2018-11-12T13:52:22.326Z,75.20
2018-11-12T13:54:50.759Z,75.20
2018-11-12T13:57:19.140Z,75.50
2018-11-12T13:59:47.612Z,75.10
2018-11-12T14:02:16.024Z,75.20
2018-11-12T14:04:44.447Z,75.40
2018-11-12T14:07:12.836Z,75.40
2018-11-12T14:09:41.309Z,75.70
2018-11-12T14:12:09.720Z,76.30
2018-11-12T14:14:38.197Z,76.10
2018-11-12T14:17:06.619Z,76.00
2018-11-12T14:19:34.995Z,76.30
2018-11-12T14:22:03.431Z,76.00
2018-11-12T14:24:31.820Z,76.10
2018-11-12T14:29:28.305Z,76.20
2018-11-12T14:34:24.836Z,76.50
2018-11-12T14:36:53.271Z,76.90
2018-11-12T14:39:21.740Z,77.00
2018-11-12T14:41:50.159Z,77.20
2018-11-12T14:44:18.532Z,77.30
2018-11-12T14:46:46.967Z,77.20
2018-11-12T14:49:15.384Z,77.40
2018-11-12T14:51:43.835Z,77.50
2018-11-12T14:54:12.230Z,77.40
2018-11-12T14:56:40.724Z,77.00
2018-11-12T14:59:09.135Z,76.90
2018-11-12T15:01:37.591Z,76.90
2018-11-12T15:04:06.081Z,77.20
2018-11-12T15:06:35.765Z,77.80
2018-11-12T15:09:06.584Z,78.00
2018-11-12T15:11:35.144Z,78.70
2018-11-12T15:14:03.527Z,79.80
2018-11-12T15:16:31.956Z,80.00
2018-11-12T15:19:00.364Z,80.50
2018-11-12T15:23:57.004Z,81.30
2018-11-12T15:26:25.496Z,81.40
2018-11-12T15:28:53.879Z,81.70
2018-11-12T15:31:22.276Z,81.90
2018-11-12T15:33:50.778Z,82.10
2018-11-12T15:36:19.294Z,82.50
2018-11-12T15:38:47.668Z,82.50
2018-11-12T15:41:16.148Z,82.80
2018-11-12T15:43:44.594Z,82.80
2018-11-12T15:46:13.016Z,82.80
2018-11-12T15:48:41.404Z,82.70
2018-11-12T15:51:09.834Z,82.80
2018-11-12T15:53:38.240Z,83.10
2018-11-12T15:56:06.662Z,83.10
2018-11-12T15:58:35.359Z,84.00
2018-11-12T16:01:03.908Z,84.20
2018-11-12T16:03:32.442Z,84.30
2018-11-12T16:08:29.172Z,84.10
2018-11-12T16:10:57.860Z,84.80
2018-11-12T16:13:28.250Z,84.90
2018-11-12T16:15:57.481Z,85.50
2018-11-12T16:20:54.028Z,85.30
2018-11-12T16:23:22.464Z,85.90
2018-11-12T16:25:50.932Z,85.90
2018-11-12T16:30:48.577Z,86.80
2018-11-12T16:33:16.969Z,87.20
2018-11-12T16:35:46.704Z,87.30
2018-11-12T16:38:16.911Z,87.40
2018-11-12T16:43:21.676Z,86.60
2018-11-12T16:48:18.888Z,86.00
2018-11-12T16:50:47.893Z,85.90
2018-11-12T16:53:20.212Z,85.90
2018-11-12T16:58:18.978Z,86.10
2018-11-12T17:00:49.639Z,85.70
2018-11-12T17:03:18.756Z,85.80
2018-11-12T17:05:48.951Z,85.60
2018-11-12T17:08:18.347Z,85.90
2018-11-12T17:10:47.815Z,85.90
2018-11-12T17:13:17.936Z,85.60
2018-11-12T17:15:46.961Z,85.80
2018-11-12T17:18:15.685Z,85.90
2018-11-12T17:20:44.603Z,85.60
2018-11-12T17:23:13.127Z,85.70
2018-11-12T17:25:41.492Z,85.80
2018-11-12T17:30:38.859Z,85.90
2018-11-12T17:33:07.298Z,86.00
2018-11-12T17:35:35.989Z,86.10
2018-11-12T17:38:05.594Z,85.90
2018-11-12T17:40:34.017Z,85.50
2018-11-12T17:43:02.505Z,85.70
2018-11-12T17:47:59.102Z,85.50
2018-11-12T17:50:28.243Z,85.60
2018-11-12T17:52:58.169Z,85.50
2018-11-12T17:55:27.029Z,85.50
2018-11-12T17:57:55.427Z,85.60
2018-11-12T18:02:57.645Z,85.40
2018-11-12T18:07:54.846Z,86.00
2018-11-12T18:10:23.184Z,85.70
2018-11-12T18:12:51.620Z,85.70
2018-11-12T18:17:49.453Z,86.00
2018-11-12T18:25:15.759Z,86.50
2018-11-12T18:30:16.813Z,86.10
2018-11-12T18:32:46.224Z,85.50
2018-11-12T18:42:40.507Z,86.10
2018-11-12T18:45:12.360Z,86.30
2018-11-12T18:52:40.687Z,86.10
2018-11-12T18:55:09.516Z,86.20
2018-11-12T18:57:38.292Z,86.50
2018-11-12T19:00:08.750Z,86.60
2018-11-12T19:02:37.178Z,86.50
2018-11-12T19:05:08.934Z,86.80
2018-11-12T19:07:37.699Z,86.50
2018-11-12T19:10:08.696Z,86.50
2018-11-12T19:12:37.119Z,86.70
2018-11-12T19:15:07.661Z,86.80
2018-11-12T19:17:36.088Z,87.10
2018-11-12T19:20:05.483Z,87.00
2018-11-12T19:22:34.031Z,87.30
2018-11-12T19:27:30.952Z,87.00
2018-11-12T19:29:59.942Z,87.10
2018-11-12T19:32:29.052Z,87.00
2018-11-12T19:37:25.819Z,86.90
2018-11-12T19:44:50.456Z,87.40
2018-11-12T19:47:18.876Z,87.40
2018-11-12T19:49:47.279Z,87.40
2018-11-12T19:52:15.704Z,87.40
2018-11-12T19:57:12.212Z,87.50
2018-11-12T19:59:40.595Z,87.50
2018-11-12T20:02:09.065Z,88.00
2018-11-12T20:04:37.607Z,87.70
2018-11-12T20:07:06.061Z,88.40
2018-11-12T20:09:34.502Z,88.40
2018-11-12T20:12:02.951Z,88.80
2018-11-12T20:14:31.364Z,89.00
2018-11-12T20:16:59.775Z,89.40
2018-11-12T20:19:28.168Z,88.80
2018-11-12T20:21:56.591Z,88.70
2018-11-12T20:24:24.992Z,88.80
2018-11-12T20:26:53.372Z,88.60
2018-11-12T20:29:21.811Z,88.50
2018-11-12T20:31:50.202Z,88.20
2018-11-12T20:34:18.640Z,88.10
2018-11-12T20:36:47.036Z,87.80
2018-11-12T20:39:15.548Z,87.70
2018-11-12T20:41:43.940Z,87.40
2018-11-12T20:44:12.359Z,87.60
2018-11-12T20:46:40.763Z,87.70
2018-11-12T20:51:37.252Z,88.10
2018-11-12T20:54:05.724Z,87.80
2018-11-12T20:56:34.169Z,87.80
2018-11-12T20:59:02.583Z,87.80
2018-11-12T21:03:59.107Z,87.40
2018-11-12T21:06:27.485Z,87.40
2018-11-12T21:08:55.931Z,87.60
2018-11-12T21:11:24.380Z,87.70
2018-11-12T21:13:52.768Z,87.80
2018-11-12T21:16:21.176Z,88.00
2018-11-12T21:18:49.579Z,87.70
2018-11-12T21:23:46.094Z,88.10
2018-11-12T21:26:14.484Z,88.40
2018-11-12T21:28:42.924Z,88.20
2018-11-12T21:31:11.309Z,88.20
2018-11-12T21:36:07.862Z,88.20
2018-11-12T21:41:04.604Z,87.60
2018-11-12T21:43:33.179Z,87.80
2018-11-12T21:46:01.408Z,87.70
2018-11-12T21:48:29.823Z,87.60
2018-11-12T21:50:58.264Z,87.50
2018-11-12T21:53:26.647Z,87.40
2018-11-12T21:55:55.055Z,87.30
2018-11-12T21:58:23.482Z,87.30
2018-11-12T22:00:51.863Z,87.40
2018-11-12T22:03:20.289Z,87.60
2018-11-12T22:05:48.736Z,87.60
2018-11-12T22:08:17.155Z,87.50
2018-11-12T22:10:45.531Z,87.60
2018-11-12T22:13:13.951Z,87.40
2018-11-12T22:15:42.370Z,87.70
2018-11-12T22:18:10.820Z,87.80
2018-11-12T22:23:07.327Z,87.60
2018-11-12T22:28:03.968Z,87.60
2018-11-12T22:30:32.351Z,87.40
2018-11-12T22:33:00.756Z,87.60
2018-11-12T22:35:29.184Z,87.60
2018-11-12T22:37:57.591Z,87.60
2018-11-12T22:40:25.997Z,87.60
2018-11-12T22:42:54.659Z,87.60
2018-11-12T22:47:52.419Z,88.00
2018-11-12T22:57:46.101Z,88.30
2018-11-12T23:00:23.116Z,88.10
2018-11-12T23:02:51.799Z,88.10
2018-11-12T23:05:20.586Z,88.30
2018-11-12T23:07:49.447Z,88.20
2018-11-12T23:10:18.464Z,88.00
2018-11-12T23:12:46.911Z,88.30
2018-11-12T23:15:15.731Z,88.30
2018-11-12T23:17:44.114Z,88.20
2018-11-12T23:20:14.770Z,87.80
2018-11-12T23:25:12.292Z,88.60
2018-11-12T23:27:41.375Z,88.90
2018-11-12T23:30:12.637Z,88.90
2018-11-12T23:32:41.040Z,89.70
2018-11-12T23:35:12.974Z,90.00
2018-11-12T23:37:42.061Z,90.30
2018-11-12T23:40:11.163Z,90.30
2018-11-12T23:42:39.607Z,89.70
2018-11-12T23:45:08.237Z,89.70
2018-11-12T23:47:37.107Z,89.90
2018-11-12T23:50:08.880Z,89.50
2018-11-12T23:52:37.307Z,89.10
2018-11-12T23:55:06.260Z,89.40
2018-11-12T23:57:34.655Z,89.50
